Terminal Aerodrome Forecast
Issued by NWS Wakefield, VA

Home | Current Version | Previous Version | Text Only | Print | Product List | Glossary On
Versions: 1 2 3 4 5 6 7 8 9 10 11 12
000
FTUS41 KAKQ 281120
TAFRIC
TAF
KRIC 281120Z 2812/2912 VRB06KT P6SM SKC
     FM290000 15005KT P6SM SCT250
     FM290400 14003KT P6SM BKN100 OVC200
     FM290600 11003KT 3SM BR BKN004 BKN010 OVC100=

USA.gov is the U.S. government's official web portal to all federal, state and local government web resources and services.